Latest Weather Observations for Legendre Island

IDW60801

Issued at 11:03 am WST Sunday 25 August 2019 (issued every 10 minutes, with the page automatically refreshed every 10 minutes)

About weather observations | Map of weather stations | Latest weather observations for WA | Other Formats
Station Details ID: 004095 Name: LEGENDRE ISLAND Lat: -20.36 Lon: 116.84 Height: 29.0 m
Data from the previous 72 hours. | See also: Recent months at Legendre Island
Date/Time
WST
Temp
°C
App
Temp
°C
Dew
Point
°C
Rel
Hum
%
Delta-T
°C
Wind Press
QNH
hPa
Press
MSL
hPa
Rain since
9am
mm
Dir  Spd
km/h
Gust
km/h
Spd
kts
Gust
kts
25/11:00am 23.4 22.3 15.2 60 4.9 WSW 15 19 8 10 1016.0 1015.8 -
25/10:30am 23.2 22.6 16.7 67 4.0 WSW 15 17 8 9 1016.4 1016.2 -
25/10:00am 22.1 21.2 15.9 68 3.7 SW 15 17 8 9 1016.4 1016.2 -
25/09:30am 21.7 20.8 16.9 74 2.9 SW 17 19 9 10 1016.5 1016.3 -
25/09:00am 21.4 20.6 17.2 77 2.6 SW 17 19 9 10 1016.4 1016.2 -
25/08:30am 20.9 20.0 16.9 78 2.4 SW 17 19 9 10 1016.0 1015.8 -
25/08:00am 20.6 19.4 17.0 80 2.2 SW 19 20 10 11 1015.9 1015.7 -
25/07:30am 20.4 19.7 17.4 83 1.8 SW 17 20 9 11 1015.6 1015.4 -
25/07:00am 19.9 18.8 17.7 87 1.4 SW 20 22 11 12 1015.3 1015.2 -
25/06:30am 19.9 17.5 16.5 81 2.0 SW 24 26 13 14 1015.1 1015.0 -
25/06:00am 20.0 19.1 17.8 87 1.4 SW 19 24 10 13 1015.0 1014.9 -
25/05:30am 20.2 18.7 17.6 85 1.6 SW 22 26 12 14 1014.7 1014.6 -
25/05:00am 20.2 19.5 19.4 95 0.5 WSW 22 24 12 13 1014.5 1014.4 -
25/04:30am 20.2 19.8 20.2 100 0.0 SW 22 26 12 14 1014.5 1014.4 -
25/04:00am 20.3 19.6 20.3 100 0.0 SW 24 28 13 15 1014.4 1014.3 -
25/03:30am 20.4 19.4 20.4 100 0.0 SW 26 32 14 17 1014.5 1014.4 -
25/03:00am 20.6 19.6 20.4 99 0.1 SW 26 32 14 17 1014.6 1014.5 -
25/02:30am 20.7 20.1 20.5 99 0.1 SW 24 28 13 15 1014.9 1014.8 -
25/02:00am 20.9 20.0 20.6 98 0.2 SW 26 32 14 17 1015.2 1015.1 -
25/01:30am 20.8 20.7 20.8 100 0.0 SW 22 28 12 15 1015.5 1015.3 -
25/01:00am 20.8 21.3 20.8 100 0.0 SW 19 22 10 12 1015.6 1015.4 -
25/12:30am 20.9 21.0 20.4 97 0.3 SW 20 24 11 13 1015.8 1015.6 -
25/12:00am 21.2 20.2 19.7 91 1.0 SW 24 28 13 15 1015.9 1015.7 -
 
Date/Time
WST
Temp
°C
App
Temp
°C
Dew
Point
°C
Rel
Hum
%
Delta-T
°C
Wind Press
QNH
hPa
Press
MSL
hPa
Rain since
9am
mm
Dir  Spd
km/h
Gust
km/h
Spd
kts
Gust
kts
24/11:30pm 21.2 20.6 19.8 92 0.9 SW 22 28 12 15 1016.0 1015.8 -
24/11:00pm 21.4 20.4 19.7 90 1.1 SW 24 30 13 16 1016.3 1016.1 -
24/10:30pm 21.2 21.7 21.2 100 0.0 SW 20 24 11 13 1016.8 1016.6 -
24/10:00pm 21.3 22.4 21.3 100 0.0 SW 17 20 9 11 1017.0 1016.8 -
24/09:30pm 21.5 22.4 21.5 100 0.0 SW 19 22 10 12 1017.0 1016.8 -
24/09:00pm 21.7 22.7 21.7 100 0.0 SW 19 20 10 11 1017.0 1016.8 -
24/08:30pm 22.0 23.9 22.0 100 0.0 WSW 15 17 8 9 1016.9 1016.7 -
24/08:00pm 21.9 24.1 21.9 100 0.0 WSW 13 15 7 8 1016.7 1016.5 -
24/07:30pm 22.2 24.8 21.9 98 0.2 W 11 13 6 7 1016.5 1016.3 -
24/07:00pm 22.5 24.0 19.7 84 1.8 WNW 11 11 6 6 1016.2 1016.0 -
24/06:30pm 22.7 24.0 19.3 81 2.2 NW 11 13 6 7 1015.9 1015.7 -
24/06:00pm 23.2 23.7 17.4 70 3.6 NW 11 13 6 7 1015.7 1015.5 -
24/05:30pm 23.8 23.8 17.3 67 4.0 NNW 13 13 7 7 1015.5 1015.3 -
24/05:00pm 24.1 24.4 17.1 65 4.3 NNW 11 13 6 7 1015.1 1015.0 -
24/04:30pm 24.3 24.2 16.0 60 5.0 NNW 11 11 6 6 1014.8 1014.7 -
24/04:00pm 24.9 25.3 16.3 59 5.3 N 9 11 5 6 1014.8 1014.7 -
24/03:30pm 24.4 24.6 14.8 55 5.7 N 7 9 4 5 1014.6 1014.5 -
24/03:00pm 24.8 24.7 14.0 51 6.4 N 7 9 4 5 1014.8 1014.7 -
24/02:30pm 24.6 24.0 14.7 54 5.9 N 11 11 6 6 1015.1 1015.0 -
24/02:00pm 25.1 24.4 13.3 48 6.9 NNE 9 11 5 6 1015.6 1015.4 -
24/01:30pm 24.7 24.9 14.8 54 5.9 NE 7 9 4 5 1016.0 1015.8 -
24/01:00pm 25.1 25.3 14.6 52 6.3 NE 7 7 4 4 1016.4 1016.2 -
24/12:30pm 24.0 24.4 14.7 56 5.5 NNE 6 7 3 4 1016.7 1016.5 -
24/12:00pm 24.4 25.0 14.2 53 6.0 ENE 4 4 2 2 1017.1 1016.9 -
24/11:30am 24.5 25.1 14.3 53 6.0 ENE 4 6 2 3 1017.5 1017.3 -
24/11:00am 24.6 25.4 14.7 54 5.9 ENE 4 6 2 3 1017.9 1017.8 -
24/10:30am 25.3 25.2 13.2 47 7.1 E 6 7 3 4 1018.0 1017.9 -
24/10:00am 24.9 24.9 14.1 51 6.4 S 7 9 4 5 1018.1 1018.0 -
24/09:30am 23.4 24.8 17.8 71 3.5 SSW 7 9 4 5 1018.0 1017.9 -
24/09:00am 21.8 24.7 21.8 100 0.0 SSW 9 11 5 6 1018.0 1017.9 -
24/08:30am 21.0 23.5 21.0 100 0.0 SSW 9 13 5 7 1017.9 1017.8 -
24/08:00am 20.5 21.6 20.5 100 0.0 SW 15 17 8 9 1017.6 1017.4 -
24/07:30am 20.1 21.0 20.1 100 0.0 SW 15 17 8 9 1017.6 1017.4 -
24/07:00am 19.2 20.1 19.2 100 0.0 SW 13 13 7 7 1017.5 1017.3 -
24/06:30am 19.3 19.8 19.3 100 0.0 SW 15 15 8 8 1017.3 1017.1 -
24/06:00am 19.5 20.5 19.5 100 0.0 SW 13 17 7 9 1017.2 1017.0 -
24/05:30am 19.7 20.0 19.7 100 0.0 SW 17 20 9 11 1017.0 1016.8 -
24/05:00am 19.8 19.8 19.8 100 0.0 SW 19 20 10 11 1016.7 1016.5 -
24/04:30am 19.8 19.8 19.8 100 0.0 SW 19 22 10 12 1016.5 1016.3 -
24/04:00am 19.9 19.4 19.9 100 0.0 SW 22 28 12 15 1016.4 1016.2 -
24/03:30am 19.9 19.8 19.9 100 0.0 SW 20 24 11 13 1016.7 1016.5 -
24/03:00am 20.0 19.5 20.0 100 0.0 SW 22 24 12 13 1016.8 1016.6 -
24/02:30am 20.1 19.7 20.1 100 0.0 SW 22 26 12 14 1017.0 1016.8 -
24/02:00am 20.0 19.9 20.0 100 0.0 SW 20 24 11 13 1017.1 1016.9 -
24/01:30am 20.0 20.9 20.0 100 0.0 SW 15 24 8 13 1017.3 1017.1 -
24/01:00am 20.1 21.4 20.1 100 0.0 SW 13 17 7 9 1017.5 1017.3 -
24/12:30am 20.2 20.8 20.2 100 0.0 SW 17 17 9 9 1017.7 1017.5 -
24/12:00am 20.3 21.3 20.3 100 0.0 SW 15 17 8 9 1017.8 1017.6 -
 
Date/Time
WST
Temp
°C
App
Temp
°C
Dew
Point
°C
Rel
Hum
%
Delta-T
°C
Wind Press
QNH
hPa
Press
MSL
hPa
Rain since
9am
mm
Dir  Spd
km/h
Gust
km/h
Spd
kts
Gust
kts
23/11:30pm 20.6 21.4 20.6 100 0.0 SW 17 20 9 11 1018.0 1017.9 -
23/11:00pm 20.8 21.3 20.8 100 0.0 SW 19 20 10 11 1018.1 1018.0 -
23/10:30pm 20.7 21.9 20.7 100 0.0 WSW 15 17 8 9 1018.3 1018.2 -
23/10:00pm 20.8 22.1 20.8 100 0.0 WSW 15 17 8 9 1018.3 1018.2 -
23/09:30pm 20.6 22.5 20.6 100 0.0 WSW 11 13 6 7 1018.4 1018.3 -
23/09:00pm 20.9 23.0 20.9 100 0.0 W 11 11 6 6 1018.5 1018.4 -
23/08:30pm 21.1 23.3 21.1 100 0.0 W 11 13 6 7 1018.5 1018.4 -
23/08:00pm 21.3 22.3 18.7 85 1.6 W 11 11 6 6 1018.3 1018.2 -
23/07:30pm 21.7 22.6 18.5 82 2.0 W 11 11 6 6 1017.9 1017.8 -
23/07:00pm 21.7 22.2 16.6 73 3.1 W 9 9 5 5 1017.6 1017.4 -
23/06:30pm 22.1 22.8 16.1 69 3.6 WNW 7 9 4 5 1017.4 1017.2 -
23/06:00pm 22.9 22.9 14.2 58 5.1 NW 7 7 4 4 1017.4 1017.2 -
23/05:30pm 23.8 22.9 11.2 45 7.1 NW 7 9 4 5 1017.2 1017.0 -
23/05:00pm 24.0 23.0 12.3 48 6.7 NW 9 11 5 6 1017.0 1016.8 -
23/04:30pm 24.4 22.0 7.1 33 9.0 NNW 9 11 5 6 1016.9 1016.7 -
23/04:00pm 24.2 24.4 14.3 54 5.8 N 6 7 3 4 1017.1 1016.9 -
23/03:30pm 23.8 23.5 12.8 50 6.3 N 6 7 3 4 1017.1 1016.9 -
23/03:00pm 23.9 23.9 14.3 55 5.7 N 7 7 4 4 1017.1 1016.9 -
23/02:30pm 23.9 23.6 13.2 51 6.2 NNE 7 7 4 4 1017.3 1017.1 -
23/02:00pm 23.8 23.6 13.6 52 5.9 NNE 7 7 4 4 1017.5 1017.3 -
23/01:30pm 24.2 23.9 13.4 51 6.3 NE 7 7 4 4 1017.6 1017.4 -
23/01:00pm 24.3 23.7 12.3 47 6.9 NE 7 9 4 5 1017.9 1017.8 -
23/12:30pm 24.3 23.8 12.6 48 6.7 N 7 9 4 5 1018.2 1018.1 -
23/12:00pm 24.8 24.2 11.7 44 7.4 N 6 9 3 5 1018.5 1018.4 -
23/11:30am 27.6 23.4 -4.3 12 13.9 SSE 9 13 5 7 1018.9 1018.8 -
23/11:00am 25.7 23.4 4.8 26 10.5 SSW 6 9 3 5 1019.2 1019.1 -
23/10:30am 24.9 22.2 5.7 29 9.8 SSW 9 13 5 7 1019.5 1019.4 -
23/10:00am 23.9 20.6 6.2 32 9.0 SSW 13 15 7 8 1019.7 1019.6 -
23/09:30am 24.0 19.1 -0.3 20 11.0 S 15 17 8 9 1019.8 1019.7 -
23/09:00am 22.6 19.0 3.2 28 9.3 S 11 15 6 8 1019.8 1019.7 -
23/08:30am 21.4 17.5 3.6 31 8.5 S 13 15 7 8 1019.7 1019.6 -
23/08:00am 20.4 17.5 8.1 45 6.4 SSW 13 15 7 8 1019.6 1019.5 -
23/07:30am 18.8 16.3 11.1 61 4.2 SSW 15 15 8 8 1019.5 1019.4 -
23/07:00am 17.6 16.3 13.7 78 2.2 SSW 13 15 7 8 1019.0 1018.9 -
23/06:30am 17.6 17.4 15.8 89 1.1 S 11 11 6 6 1018.7 1018.6 -
23/06:00am 17.3 17.5 16.7 96 0.4 S 11 13 6 7 1018.3 1018.2 -
23/05:30am 17.5 17.5 17.2 98 0.2 S 13 13 7 7 1018.1 1018.0 -
23/05:00am 17.4 17.8 17.2 99 0.1 S 11 13 6 7 1017.9 1017.8 -
23/04:30am 17.3 17.7 17.3 100 0.0 S 11 13 6 7 1017.8 1017.6 -
23/04:00am 17.7 17.9 17.7 100 0.0 S 13 13 7 7 1017.8 1017.6 -
23/03:30am 17.8 18.1 17.8 100 0.0 S 13 13 7 7 1017.9 1017.8 -
23/03:00am 18.1 18.9 18.1 100 0.0 S 11 13 6 7 1018.0 1017.9 -
23/02:30am 18.1 18.9 18.1 100 0.0 S 11 13 6 7 1018.1 1018.0 -
23/02:00am 18.3 19.2 18.3 100 0.0 SSW 11 13 6 7 1018.1 1018.0 -
23/01:30am 18.2 19.4 18.2 100 0.0 SSW 9 11 5 6 1018.4 1018.3 -
23/01:00am 18.5 19.4 18.5 100 0.0 SSW 11 11 6 6 1018.7 1018.6 -
23/12:30am 18.9 20.4 18.9 100 0.0 SSW 9 9 5 5 1019.0 1018.9 -
23/12:00am 20.0 22.6 19.2 95 0.5 NNW 4 4 2 2 1019.0 1018.9 -
 
Date/Time
WST
Temp
°C
App
Temp
°C
Dew
Point
°C
Rel
Hum
%
Delta-T
°C
Wind Press
QNH
hPa
Press
MSL
hPa
Rain since
9am
mm
Dir  Spd
km/h
Gust
km/h
Spd
kts
Gust
kts
22/11:30pm 21.3 23.5 18.3 83 1.9 NNW 4 6 2 3 1019.0 1018.9 -
22/11:00pm 21.1 23.1 18.7 86 1.5 NNW 6 6 3 3 1019.0 1018.9 -
22/10:30pm 21.3 22.7 17.9 81 2.1 N 7 9 4 5 1019.1 1019.0 -
22/10:00pm 21.3 22.4 18.1 82 2.0 N 9 9 5 5 1019.1 1019.0 -
22/09:30pm 21.5 22.6 17.9 80 2.2 N 9 11 5 6 1019.4 1019.3 -
22/09:00pm 21.6 22.5 17.6 78 2.5 N 9 9 5 5 1019.5 1019.4 -
22/08:30pm 21.6 22.0 16.3 72 3.2 N 9 9 5 5 1019.3 1019.2 -
22/08:00pm 21.7 22.1 16.4 72 3.2 N 9 9 5 5 1019.2 1019.1 -
22/07:30pm 21.7 22.1 16.4 72 3.2 N 9 11 5 6 1018.9 1018.8 -
22/07:00pm 21.8 21.9 15.6 68 3.7 N 9 11 5 6 1018.8 1018.7 -
22/06:30pm 21.9 21.9 15.3 66 3.9 N 9 11 5 6 1018.6 1018.5 -
22/06:00pm 22.1 21.3 14.0 60 4.7 NNE 11 11 6 6 1018.5 1018.4 -
22/05:30pm 22.4 21.0 12.1 52 5.8 NNE 11 13 6 7 1018.5 1018.4 -
22/05:00pm 22.6 21.1 12.0 51 6.0 NNE 11 13 6 7 1018.4 1018.3 -
22/04:30pm 23.3 21.0 11.7 48 6.5 NE 15 17 8 9 1018.3 1018.2 -
22/04:00pm 23.4 20.8 12.1 49 6.4 NE 17 19 9 10 1018.3 1018.2 -
22/03:30pm 23.7 20.7 10.7 44 7.2 NE 17 20 9 11 1018.3 1018.2 -
22/03:00pm 23.7 20.6 11.7 47 6.8 NE 19 22 10 12 1018.4 1018.3 -
22/02:30pm 23.6 20.0 10.6 44 7.2 ENE 20 24 11 13 1018.5 1018.4 -
22/02:00pm 23.8 20.2 10.5 43 7.3 ENE 20 24 11 13 1018.8 1018.7 -
22/01:30pm 24.1 20.1 10.4 42 7.6 ENE 22 26 12 14 1019.1 1019.0 -
22/01:00pm 24.0 19.5 9.9 41 7.7 E 24 28 13 15 1019.3 1019.2 -
22/12:30pm 23.9 19.3 9.5 40 7.8 E 24 28 13 15 1019.6 1019.5 -
22/12:00pm 23.5 19.6 10.9 45 7.0 E 22 26 12 14 1020.2 1020.1 -
22/11:30am 23.3 18.2 9.3 41 7.6 E 26 30 14 16 1020.5 1020.4 -

Other formats

Comma delimited format used in spreadsheet applications
http://www.bom.gov.au/fwo/IDW60801/IDW60801.94307.axf

JavaScript Object Notation format (JSON) in row-major order
http://www.bom.gov.au/fwo/IDW60801/IDW60801.94307.json

Data quality

Most of these data are generated automatically and are frequently updated. Quality checks on data are not normally performed. It is possible for incorrect values to appear. Refer to information at About Latest Weather Observations and please check the disclaimer before using these data.